Goode, Virginia
Current Conditions -  °F | °C
As of 4:54 AM on Thursday 23 Oct 2014 (Local Time) from KLYH Reporting Station
Clear Clear  
Wind Chill: 45°   Ceiling: Unl
Heat Index: 45°   Visibility: 10mi
Dew Point: 38°   Wind: 3mph
Humidity: 76%   Direction: 220°SW
Pressure: 29.99"   Gusts: NA
Location:  37.36°N, 79.39°W
Report Text: KLYH 230854Z AUTO 22003KT 10SM CLR 07/03 A2999 RMK AO2 SLP156 T00720033 58007
Loading
Personal Weather Stations






























Interactive Weather Map
Tropical Storm Tracking
New forecast layout! Learn more

10-Day Weather Forecast

Advertisements
Track Severe Weather on mobile